CheckWX is a tool to help pilots better visualize weather data.  It is not intended as a substitute for an official pre-flight weather briefing.

15:29:52 UTC

KVGT TAF
North Las Vegas Airport
Las Vegas, Nevada, USA
KVGT 171120Z 1712/1812 VRB06KT P6SM BKN200 FM171600 22012G20KT P6SM FEW140 BKN200 FM180200 25010KT P6SM FEW140 SCT200 FM180600 34016G24KT P6SM FEW120

Oct-17@
12:00 UTC

Oct-17 @ 12:00 UTC

Oct-17@
16:00 UTC

Oct-17 @ 16:00 UTC

KVGT 171120Z 1712/1812 VRB06KT P6SM BKN200
Wind
  • Variable at 6 KTS
Cloud Levels
  • Broken at 20,000' AGL

Oct-17@
16:00 UTC

Oct-17 @ 16:00 UTC

Oct-18@
02:00 UTC

Oct-18 @ 02:00 UTC

FM171600 22012G20KT P6SM FEW140 BKN200

From

From Standard forecast or significant change

Wind
  • 220° at 12 KTS
  • {Gusting to 20 KTS
Cloud Levels
  • Few at 14,000' AGL
  • Broken at 20,000' AGL

Oct-18@
02:00 UTC

Oct-18 @ 02:00 UTC

Oct-18@
06:00 UTC

Oct-18 @ 06:00 UTC

FM180200 25010KT P6SM FEW140 SCT200

From

From Standard forecast or significant change

Wind
  • 250° at 10 KTS
Cloud Levels
  • Few at 14,000' AGL
  • Scattered at 20,000' AGL

Oct-18@
06:00 UTC

Oct-18 @ 06:00 UTC

Oct-18@
12:00 UTC

Oct-18 @ 12:00 UTC

FM180600 34016G24KT P6SM FEW120

From

From Standard forecast or significant change

Wind
  • 340° at 16 KTS
  • {Gusting to 24 KTS
Cloud Levels
  • Few at 12,000' AGL